Huvudsida
METAR-TAF:

METAR-TAF

Flygplatser :

Ålesunds flygplats. Vigra

Ålesund, Norge

latitud: 62-34N, longitud: 006-07E, höjd: 2 m

Aktuellt väderrapport

Denna rapport gjordes för 27 minuter sedan, klockan 04:20 UTC
Vind 12 kt från väst/sydväst
Temperatur 3°C
Fuktighet 93%
Tryck 995 hPa
Sikt: 7000 m
lätt regn

METAR: ENAL 190420Z AUTO 25012KT 7000 -RA BKN014/// OVC021/// 03/02 Q0995

Tid: 05:47 (04:47 UTC)

Väderprognos

Denna rapport gjordes för 2 timmar och 47 minuter sedan, klockan 02:00 UTC
Prognos gäller från 19 kl. 03 UTC till 19 kl. 12 UTC
Vind 12 kt från syd/sydväst
Sikt 10 km eller mer
Få moln på en höjd av 1500 ft, Högtornande cumulus.
Brutna moln på en höjd av 3000 ft
lätta regnskurar
Temporärt
från 19 kl. 03 UTC till 19 kl. 12 UTC
Sikt: 4000 m
Brutna moln på en höjd av 1200 ft, Cumulonimbus.
regnskurar, småhagel eller snökorn

TAF: ENAL 190200Z 1903/1912 20012KT 9999 -SHRA FEW015TCU BKN030 TEMPO 1903/1912 4000 SHRAGS BKN012CB

Aktuella väderrapporter och prognoser från 4000 flygplatser (METAR- och TAF-rapporter).

De tillgängliga stationerna syns som gula och röda prickar på kartan.

För musen över prickarna för att se namnen på stationerna.

Klicka sedan för att få väderrapporter och prognoser.

För att ändra kartan: Klicka på de gröna knapparna med ett svart kors på för att zooma in; den gröna knappen med ett streck på för att zooma ut; eller på de gröna pilarna för angränsande kartor.


METAR-TAF: